Time;durP1;ratioP1;P1;durP2;ratioP2;P2;SDS_P1;SDS_P2;PMS_P1;PMS_P2;Temp;Humidity;BMP_temperature;BMP_pressure;BME280_temperature;BME280_humidity;BME280_pressure;Samples;Min_cycle;Max_cycle;Signal;HPM_P1;HPM_P2
2022/03/20 00:00:26;;;;;;;9.77;2.90;;;;;;;6.32;58.26;103381.06;5051960;28;20029;-76
2022/03/20 00:02:53;;;;;;;10.75;3.10;;;;;;;6.30;58.63;103385.63;5051990;28;20045;-76
2022/03/20 00:05:18;;;;;;;9.15;2.60;;;;;;;6.27;58.86;103380.47;5051671;28;20461;-75
2022/03/20 00:07:46;;;;;;;11.40;3.72;;;;;;;6.23;59.14;103374.44;5050223;28;20087;-78
2022/03/20 00:10:11;;;;;;;8.20;3.13;;;;;;;6.20;59.20;103377.28;5050427;28;20538;-78
2022/03/20 00:12:37;;;;;;;9.90;3.10;;;;;;;6.18;59.45;103371.16;5051502;28;20029;-77
2022/03/20 00:15:03;;;;;;;13.20;3.47;;;;;;;6.16;59.79;103373.06;5050535;28;20500;-77
2022/03/20 00:17:29;;;;;;;21.00;3.40;;;;;;;6.11;59.93;103367.16;5051564;28;20067;-75
2022/03/20 00:19:55;;;;;;;8.95;3.38;;;;;;;6.09;60.27;103371.72;5050169;28;20104;-77
2022/03/20 00:22:20;;;;;;;10.45;3.58;;;;;;;6.07;60.50;103373.63;5051961;28;20502;-77
2022/03/20 00:24:47;;;;;;;11.02;4.35;;;;;;;6.00;60.96;103375.78;5051610;28;20033;-76
2022/03/20 00:27:14;;;;;;;13.48;3.80;;;;;;;6.01;61.46;103358.81;5031767;28;20485;-77
2022/03/20 00:29:40;;;;;;;16.25;4.28;;;;;;;5.99;61.43;103363.38;5051638;28;20025;-76
2022/03/20 00:32:06;;;;;;;24.48;4.85;;;;;;;5.90;61.96;103364.75;5051325;28;20029;-77
2022/03/20 00:34:32;;;;;;;16.60;4.85;;;;;;;5.87;62.64;103364.94;5051355;28;20040;-77
2022/03/20 00:36:57;;;;;;;16.73;5.75;;;;;;;5.85;63.26;103358.81;5051724;28;20365;-75
2022/03/20 00:39:22;;;;;;;18.30;6.60;;;;;;;5.80;63.81;103352.88;5052265;28;20037;-76
2022/03/20 00:41:48;;;;;;;16.42;5.35;;;;;;;5.79;64.25;103350.28;5050147;28;20033;-77
2022/03/20 00:44:13;;;;;;;19.13;6.50;;;;;;;5.76;64.33;103356.66;5051304;28;20044;-76
2022/03/20 00:46:39;;;;;;;14.85;6.63;;;;;;;5.73;64.43;103340.81;5050875;28;20104;-75
2022/03/20 00:49:05;;;;;;;20.52;5.95;;;;;;;5.71;64.84;103332.00;5051316;28;20116;-77
2022/03/20 00:51:31;;;;;;;24.30;6.45;;;;;;;5.64;65.59;103336.88;5051104;28;20115;-75
2022/03/20 00:53:56;;;;;;;19.60;6.93;;;;;;;5.63;65.93;103326.25;5051149;28;20443;-77
2022/03/20 00:56:21;;;;;;;22.45;7.43;;;;;;;5.60;65.97;103329.13;5050708;28;20033;-76
2022/03/20 00:58:47;;;;;;;17.52;7.45;;;;;;;5.53;66.24;103323.28;5050181;28;20056;-77
2022/03/20 01:01:14;;;;;;;21.90;7.20;;;;;;;5.49;66.97;103316.38;5052746;28;20052;-77
2022/03/20 01:03:40;;;;;;;23.05;7.65;;;;;;;5.52;66.99;103320.69;5051061;28;20036;-75
2022/03/20 01:06:06;;;;;;;21.77;7.80;;;;;;;5.46;67.46;103322.75;5049654;28;20033;-75
2022/03/20 01:08:32;;;;;;;15.10;7.75;;;;;;;5.44;67.39;103303.28;5050737;28;20076;-74
2022/03/20 01:10:57;;;;;;;21.10;8.38;;;;;;;5.43;67.77;103312.25;5050004;28;20025;-75
2022/03/20 01:13:23;;;;;;;19.60;8.30;;;;;;;5.41;67.92;103308.81;5050250;28;20550;-76
2022/03/20 01:15:49;;;;;;;12.57;7.18;;;;;;;5.42;68.26;103304.31;5050532;28;20037;-76
2022/03/20 01:18:15;;;;;;;18.60;8.02;;;;;;;5.35;68.51;103292.28;5050797;28;20491;-76
2022/03/20 01:20:40;;;;;;;23.48;8.88;;;;;;;5.32;68.43;103297.78;5051731;28;20035;-78
2022/03/20 01:23:05;;;;;;;16.75;8.27;;;;;;;5.28;69.04;103297.09;5049237;28;20112;-76
2022/03/20 01:25:31;;;;;;;23.55;9.52;;;;;;;5.26;68.79;103282.97;5050907;28;20032;-76
2022/03/20 01:27:56;;;;;;;18.58;8.63;;;;;;;5.22;69.24;103276.94;5057453;28;20447;-75
2022/03/20 01:30:22;;;;;;;21.55;8.77;;;;;;;5.24;69.30;103274.22;5057572;28;20039;-77
2022/03/20 01:32:47;;;;;;;20.73;9.57;;;;;;;5.21;69.02;103275.25;5057340;28;20108;-77
2022/03/20 01:35:13;;;;;;;19.48;9.25;;;;;;;5.20;69.24;103262.81;5056494;28;20033;-76
2022/03/20 01:37:41;;;;;;;21.40;9.55;;;;;;;5.19;68.95;103262.94;5057480;28;20468;-75
2022/03/20 01:40:07;;;;;;;26.80;10.10;;;;;;;5.16;69.41;103257.72;5057096;28;20024;-75
2022/03/20 01:42:33;;;;;;;18.05;9.55;;;;;;;5.15;69.48;103256.03;5057441;28;20029;-75
2022/03/20 01:44:58;;;;;;;21.27;9.82;;;;;;;5.15;69.81;103248.03;5057495;28;20104;-76
2022/03/20 01:47:24;;;;;;;23.42;11.45;;;;;;;5.10;69.93;103244.75;5057638;28;20479;-76
2022/03/20 01:49:49;;;;;;;24.55;9.88;;;;;;;5.12;69.55;103245.53;5057167;28;20326;-75
2022/03/20 01:52:15;;;;;;;20.55;9.55;;;;;;;5.10;69.47;103234.06;5057894;28;20029;-74
2022/03/20 01:54:44;;;;;;;19.30;9.60;;;;;;;5.05;70.13;103240.53;5057832;28;20112;-77
2022/03/20 01:57:12;;;;;;;29.83;10.60;;;;;;;5.02;70.29;103237.16;5057321;28;20468;-77
2022/03/20 01:59:38;;;;;;;25.42;9.73;;;;;;;4.99;70.03;103238.22;5056625;28;20091;-78
2022/03/20 02:02:04;;;;;;;25.17;10.77;;;;;;;4.98;70.10;103236.50;5056732;28;20028;-75
2022/03/20 02:04:30;;;;;;;24.88;9.88;;;;;;;4.96;70.24;103233.03;5056971;28;20028;-74
2022/03/20 02:06:56;;;;;;;23.95;10.93;;;;;;;4.90;70.40;103228.06;5057199;28;20025;-77
2022/03/20 02:09:21;;;;;;;31.27;11.73;;;;;;;4.88;70.70;103229.94;5056802;28;20028;-76
2022/03/20 02:11:47;;;;;;;23.88;10.60;;;;;;;4.87;70.80;103222.91;5056683;28;20245;-75
2022/03/20 02:14:13;;;;;;;23.80;10.68;;;;;;;4.88;70.44;103213.09;5056392;28;20044;-75
2022/03/20 02:16:38;;;;;;;26.80;11.38;;;;;;;4.86;70.45;103210.50;5056740;28;20041;-75
2022/03/20 02:19:07;;;;;;;29.90;11.75;;;;;;;4.81;70.20;103207.22;5056053;28;20111;-75
2022/03/20 02:21:40;;;;;;;26.52;11.45;;;;;;;4.75;70.51;103204.91;5036992;28;20148;-76
2022/03/20 02:24:31;;;;;;;25.25;10.50;;;;;;;4.77;70.39;103195.88;5056044;28;20476;-75
2022/03/20 02:27:18;;;;;;;30.23;11.45;;;;;;;4.73;70.94;103196.13;5046792;28;20021;-75
2022/03/20 02:29:49;;;;;;;26.77;10.90;;;;;;;4.72;71.25;103197.09;5057611;28;20322;-75
2022/03/20 02:32:17;;;;;;;24.55;10.50;;;;;;;4.68;71.18;103184.84;5056707;28;20036;-75
2022/03/20 02:34:45;;;;;;;28.38;12.25;;;;;;;4.60;71.11;103177.28;5056613;28;20055;-75
2022/03/20 02:37:10;;;;;;;24.88;11.60;;;;;;;4.60;71.18;103171.94;5056940;28;20115;-75
2022/03/20 02:39:36;;;;;;;25.10;11.93;;;;;;;4.59;71.40;103176.41;5052687;28;20381;-77
2022/03/20 02:42:06;;;;;;;37.63;12.52;;;;;;;4.58;71.08;103168.50;5053487;28;20024;-75
2022/03/20 02:44:50;;;;;;;32.58;12.43;;;;;;;4.56;71.18;103163.25;5053472;28;20037;-75
2022/03/20 02:47:22;;;;;;;24.35;11.68;;;;;;;4.52;71.32;103164.38;5053402;28;20112;-75
2022/03/20 02:49:50;;;;;;;25.33;11.02;;;;;;;4.53;71.30;103160.78;5052421;28;20499;-76
2022/03/20 02:52:16;;;;;;;24.63;11.63;;;;;;;4.53;71.58;103160.78;5053609;28;20514;-76
2022/03/20 02:54:42;;;;;;;24.13;11.82;;;;;;;4.46;71.26;103159.38;5053127;28;20069;-76
2022/03/20 02:57:08;;;;;;;29.88;11.77;;;;;;;4.49;71.97;103169.88;5053224;28;20186;-75
2022/03/20 02:59:34;;;;;;;21.58;11.48;;;;;;;4.48;71.42;103153.97;5054954;28;20493;-76
2022/03/20 03:01:59;;;;;;;25.80;11.57;;;;;;;4.44;72.25;103158.59;5067165;28;20025;-76
2022/03/20 03:04:25;;;;;;;24.02;12.45;;;;;;;4.44;72.07;103152.41;5052940;28;20030;-77
2022/03/20 03:06:50;;;;;;;23.30;11.18;;;;;;;4.42;72.27;103141.81;5149220;22;20547;-41
2022/03/20 03:11:59;;;;;;;21.77;10.68;;;;;;;4.33;73.07;103137.88;5061719;28;20048;-41
2022/03/20 03:17:08;;;;;;;28.38;11.57;;;;;;;4.31;73.08;103138.91;5052336;28;20510;-41
2022/03/20 03:19:34;;;;;;;26.85;11.02;;;;;;;4.24;73.15;103134.84;5075572;28;20024;-41
2022/03/20 03:22:01;;;;;;;17.27;10.13;;;;;;;4.26;73.11;103122.28;5092519;28;20028;-41
2022/03/20 03:24:26;;;;;;;20.13;10.75;;;;;;;4.24;74.02;103126.84;5084821;28;20028;-41
2022/03/20 03:26:51;;;;;;;20.98;10.05;;;;;;;4.21;74.23;103121.69;5072504;28;20082;-41
2022/03/20 03:29:17;;;;;;;21.70;10.60;;;;;;;4.14;74.31;103115.84;5080683;28;20028;-41
2022/03/20 03:31:42;;;;;;;22.55;10.93;;;;;;;4.13;74.49;103130.97;5091010;28;20044;-41
2022/03/20 03:36:51;;;;;;;27.15;10.70;;;;;;;4.12;74.20;103118.59;5088199;28;20086;-41
2022/03/20 03:39:19;;;;;;;20.60;10.10;;;;;;;4.06;74.96;103120.75;5080386;28;20032;-42
2022/03/20 03:41:44;;;;;;;17.98;10.02;;;;;;;4.05;74.85;103117.19;5082114;28;20399;-41
2022/03/20 03:44:09;;;;;;;15.50;9.60;;;;;;;4.03;75.34;103113.78;5053725;28;20025;-41
2022/03/20 03:46:35;;;;;;;23.17;10.73;;;;;;;4.02;75.45;103122.69;5072521;28;20363;-41
2022/03/20 03:49:00;;;;;;;25.02;9.95;;;;;;;3.98;75.51;103107.81;5078232;28;20146;-41
2022/03/20 03:51:26;;;;;;;20.67;9.95;;;;;;;3.96;75.39;103105.22;5092001;28;20046;-42
2022/03/20 03:53:51;;;;;;;23.85;9.85;;;;;;;3.91;76.10;103106.44;5091885;28;20106;-41
2022/03/20 03:56:19;;;;;;;20.35;9.85;;;;;;;3.91;76.27;103095.78;5091768;28;20063;-41
2022/03/20 03:58:44;;;;;;;22.13;10.10;;;;;;;3.88;76.09;103103.94;5077257;28;20024;-41
2022/03/20 04:01:10;;;;;;;17.02;9.40;;;;;;;3.85;76.44;103093.44;5071733;28;20466;-42
2022/03/20 04:03:35;;;;;;;17.00;9.20;;;;;;;3.82;76.04;103093.59;5075427;28;20111;-41
2022/03/20 04:06:06;;;;;;;19.70;9.75;;;;;;;3.77;76.40;103075.22;5071661;28;20311;-40
2022/03/20 04:08:34;;;;;;;22.52;9.38;;;;;;;3.83;76.45;103076.69;5069819;28;20586;-40
2022/03/20 04:10:59;;;;;;;20.55;9.98;;;;;;;3.79;76.29;103072.44;5071340;28;20320;-40
2022/03/20 04:13:25;;;;;;;28.25;9.18;;;;;;;3.78;76.16;103060.94;5071318;28;20035;-40
2022/03/20 04:15:52;;;;;;;20.08;9.55;;;;;;;3.80;76.66;103060.88;5071065;28;20024;-41
2022/03/20 04:18:17;;;;;;;18.88;8.65;;;;;;;3.77;76.42;103066.38;5070095;28;20028;-40
2022/03/20 04:20:44;;;;;;;17.65;9.00;;;;;;;3.77;76.81;103059.25;5071191;28;20020;-40
2022/03/20 04:25:54;;;;;;;19.95;10.15;;;;;;;3.71;76.22;103033.81;5070744;28;20489;-41
2022/03/20 04:28:21;;;;;;;26.23;10.00;;;;;;;3.72;76.16;103038.16;5071026;28;20099;-40
2022/03/20 04:30:48;;;;;;;21.15;9.23;;;;;;;3.70;76.33;103032.06;5070584;28;20081;-40
2022/03/20 04:33:14;;;;;;;18.85;9.38;;;;;;;3.68;76.35;103028.63;5070866;28;20120;-40
2022/03/20 04:35:39;;;;;;;20.35;9.90;;;;;;;3.67;76.31;103021.59;5069609;28;20107;-41
2022/03/20 04:38:04;;;;;;;19.58;9.05;;;;;;;3.64;76.30;103031.56;5070037;28;20025;-42
2022/03/20 04:40:29;;;;;;;22.35;9.48;;;;;;;3.63;76.29;103028.00;5070586;28;20343;-41
2022/03/20 04:42:55;;;;;;;19.52;9.52;;;;;;;3.62;76.34;103033.44;5069189;28;20029;-41
2022/03/20 04:45:20;;;;;;;17.80;8.95;;;;;;;3.62;76.13;103026.28;5068923;28;20024;-41
2022/03/20 04:58:43;;;;;;;19.98;9.77;;;;;;;3.56;75.60;103005.34;5070503;28;20079;-41
2022/03/20 05:01:09;;;;;;;21.27;9.98;;;;;;;3.51;75.49;103000.25;5069918;28;20135;-42
2022/03/20 05:03:35;;;;;;;25.13;9.93;;;;;;;3.53;75.37;102989.53;5070553;28;20492;-41
2022/03/20 05:06:02;;;;;;;17.13;9.85;;;;;;;3.53;74.95;102992.19;5070314;28;20035;-41
2022/03/20 05:08:28;;;;;;;23.67;10.65;;;;;;;3.46;75.47;102985.47;5068575;28;20109;-41
2022/03/20 05:13:38;;;;;;;22.23;10.88;;;;;;;3.47;75.01;102987.19;5057159;28;20043;-41
2022/03/20 05:16:04;;;;;;;18.95;10.02;;;;;;;3.47;74.85;102982.72;5069662;28;20024;-41
2022/03/20 05:18:29;;;;;;;20.13;10.50;;;;;;;3.47;75.11;102990.69;5070277;28;20060;-41
2022/03/20 05:20:55;;;;;;;26.02;11.02;;;;;;;3.44;74.73;102976.72;5069870;28;20560;-40
2022/03/20 05:23:21;;;;;;;20.27;11.02;;;;;;;3.40;74.84;102981.34;5069550;28;20480;-41
2022/03/20 05:25:47;;;;;;;22.88;10.32;;;;;;;3.42;74.31;102973.25;5069315;28;20016;-41
2022/03/20 05:28:12;;;;;;;24.00;11.18;;;;;;;3.42;74.33;102971.47;5070399;28;20122;-41
2022/03/20 05:30:39;;;;;;;18.55;11.57;;;;;;;3.39;74.04;102965.44;5070381;28;20028;-41
2022/03/20 05:33:07;;;;;;;22.17;12.50;;;;;;;3.36;74.35;102946.97;5070196;28;20279;-41
2022/03/20 05:35:32;;;;;;;28.38;12.35;;;;;;;3.38;74.20;102945.09;5069212;28;20043;-42
2022/03/20 05:37:59;;;;;;;25.85;12.38;;;;;;;3.38;73.74;102951.28;5045038;28;20037;-40
2022/03/20 05:40:24;;;;;;;22.63;12.27;;;;;;;3.36;74.36;102941.66;5042667;28;20032;-42
2022/03/20 05:42:49;;;;;;;26.05;12.18;;;;;;;3.27;74.38;102938.56;5053655;28;20040;-41
2022/03/20 05:45:15;;;;;;;28.20;12.75;;;;;;;3.26;74.30;102931.50;5056027;28;20479;-41
2022/03/20 05:47:40;;;;;;;25.60;12.88;;;;;;;3.29;74.02;102931.34;5048918;28;20079;-41
2022/03/20 05:50:07;;;;;;;30.25;13.45;;;;;;;3.28;74.02;102931.44;5054059;28;20110;-41
2022/03/20 05:52:34;;;;;;;28.88;14.55;;;;;;;3.27;74.34;102929.72;5051266;28;20085;-41
2022/03/20 05:55:05;;;;;;;39.70;14.73;;;;;;;3.26;74.11;102933.31;5058023;28;20024;-42
2022/03/20 06:00:25;;;;;;;29.98;15.25;;;;;;;3.29;74.03;102930.47;5048306;28;20454;-40
2022/03/20 06:02:51;;;;;;;30.33;14.63;;;;;;;3.32;74.20;102934.78;5050410;28;20044;-41
2022/03/20 06:05:17;;;;;;;31.73;15.90;;;;;;;3.28;73.86;102932.28;5044977;28;20495;-42
2022/03/20 06:07:44;;;;;;;34.65;15.63;;;;;;;3.32;73.90;102929.44;5048389;28;20056;-42
2022/03/20 06:10:20;;;;;;;31.73;15.13;;;;;;;3.27;73.67;102911.09;5056484;28;20043;-41
2022/03/20 06:12:46;;;;;;;29.33;14.55;;;;;;;3.34;73.42;102906.28;5051753;28;20390;-40
2022/03/20 06:15:12;;;;;;;29.13;13.77;;;;;;;3.35;73.18;102908.03;5056908;28;20032;-41
2022/03/20 06:17:45;;;;;;;30.17;14.98;;;;;;;3.35;73.31;102902.69;5054743;28;20033;-41
2022/03/20 06:20:13;;;;;;;25.70;13.88;;;;;;;3.40;72.57;102892.66;5049343;28;20097;-41
2022/03/20 06:22:39;;;;;;;29.50;13.57;;;;;;;3.45;72.54;102898.56;5044479;28;20441;-41
2022/03/20 06:25:09;;;;;;;28.48;14.55;;;;;;;3.50;72.47;102907.16;5053041;28;20039;-40
2022/03/20 06:27:53;;;;;;;30.17;14.00;;;;;;;3.54;72.39;102903.38;5062626;28;20083;-41
2022/03/20 06:30:20;;;;;;;25.60;14.55;;;;;;;3.58;71.95;102893.41;5060069;28;20029;-41
2022/03/20 06:32:46;;;;;;;26.03;12.63;;;;;;;3.59;72.11;102893.34;5058548;28;20082;-41
2022/03/20 06:35:12;;;;;;;27.55;13.82;;;;;;;3.67;70.83;102899.09;5054039;28;20374;-42
2022/03/20 06:37:43;;;;;;;28.70;12.75;;;;;;;3.65;71.80;102892.97;5056081;28;20045;-41
2022/03/20 06:40:09;;;;;;;26.08;13.13;;;;;;;3.72;70.68;102902.34;5053608;28;20037;-40
2022/03/20 06:42:35;;;;;;;25.50;12.25;;;;;;;3.74;70.37;102899.63;5058753;28;20116;-41
2022/03/20 06:45:01;;;;;;;28.88;13.38;;;;;;;3.78;70.04;102910.94;5060317;28;20115;-40
2022/03/20 06:47:27;;;;;;;29.65;12.07;;;;;;;3.74;70.28;102908.47;5050993;28;20404;-41
2022/03/20 06:49:53;;;;;;;26.80;12.93;;;;;;;3.78;69.40;102890.47;5053385;28;20167;-42
2022/03/20 06:52:22;;;;;;;28.60;13.13;;;;;;;3.80;69.59;102888.59;5053079;28;20360;-42
2022/03/20 06:54:49;;;;;;;22.63;12.60;;;;;;;3.86;69.40;102890.06;5056640;28;20021;-41
2022/03/20 06:57:17;;;;;;;30.33;13.27;;;;;;;3.93;69.29;102889.63;5051627;28;20033;-41
2022/03/20 06:59:42;;;;;;;23.27;12.68;;;;;;;4.01;68.32;102891.84;5053056;28;20029;-41
2022/03/20 07:02:07;;;;;;;27.35;12.30;;;;;;;4.07;67.43;102885.28;5051053;28;20110;-41
2022/03/20 07:04:33;;;;;;;26.20;12.85;;;;;;;4.09;67.58;102884.25;5055799;28;20029;-41
2022/03/20 07:06:59;;;;;;;23.23;12.10;;;;;;;4.09;68.45;102884.25;5054322;28;20057;-41
2022/03/20 07:09:25;;;;;;;24.75;12.25;;;;;;;4.10;68.88;102880.63;5050321;28;20055;-41
2022/03/20 07:11:50;;;;;;;27.45;13.52;;;;;;;4.10;69.45;102872.63;5058963;28;20037;-40
2022/03/20 07:14:15;;;;;;;32.83;13.15;;;;;;;4.05;69.87;102865.84;5050637;28;20061;-41
2022/03/20 07:16:43;;;;;;;28.13;12.82;;;;;;;4.05;69.54;102874.72;5058169;28;20141;-41
2022/03/20 07:19:10;;;;;;;25.98;13.57;;;;;;;4.06;68.88;102863.13;5051741;28;20878;-41
2022/03/20 07:21:35;;;;;;;24.90;12.85;;;;;;;4.14;68.42;102866.19;5056699;28;20035;-41
2022/03/20 07:24:02;;;;;;;25.13;12.75;;;;;;;4.35;68.64;102857.88;5049498;28;20044;-42
2022/03/20 07:29:29;;;;;;;27.92;12.50;;;;;;;4.51;67.13;102869.31;5055424;28;20066;-42
2022/03/20 07:31:55;;;;;;;25.30;13.13;;;;;;;4.95;64.86;102857.75;5049053;28;20383;-41
2022/03/20 07:34:21;;;;;;;28.67;12.55;;;;;;;5.46;63.18;102860.72;5054523;28;20029;-40
2022/03/20 07:36:46;;;;;;;24.75;12.95;;;;;;;6.16;61.93;102849.00;5054270;28;20059;-43
2022/03/20 07:39:11;;;;;;;28.20;13.27;;;;;;;6.70;59.58;102840.00;5055804;28;20035;-41
2022/03/20 07:41:37;;;;;;;24.27;12.05;;;;;;;7.16;56.99;102834.03;5050332;28;20029;-42
2022/03/20 07:44:03;;;;;;;20.15;12.38;;;;;;;7.35;56.27;102830.88;5052254;28;20414;-42
2022/03/20 07:46:28;;;;;;;23.25;12.63;;;;;;;7.55;54.73;102832.09;5051058;28;20530;-42
2022/03/20 07:48:53;;;;;;;24.13;12.48;;;;;;;7.91;54.04;102833.84;5034490;28;20551;-41
2022/03/20 07:51:20;;;;;;;23.25;12.73;;;;;;;8.00;53.68;102826.94;5054382;28;20115;-41
2022/03/20 07:53:45;;;;;;;23.30;12.15;;;;;;;8.06;52.98;102821.97;5053650;28;20604;-41
2022/03/20 07:56:11;;;;;;;28.65;12.75;;;;;;;8.09;52.98;102815.53;5053431;28;20119;-42
2022/03/20 07:58:37;;;;;;;22.38;12.60;;;;;;;8.09;52.63;102811.00;5051554;28;20469;-41
2022/03/20 08:01:02;;;;;;;28.90;13.55;;;;;;;7.61;53.73;102819.09;5056215;28;20036;-42
2022/03/20 08:03:28;;;;;;;24.60;12.75;;;;;;;7.06;55.14;102799.03;5053356;28;20429;-41
2022/03/20 08:05:53;;;;;;;25.02;13.35;;;;;;;7.21;55.77;102781.88;5054086;28;20424;-41
2022/03/20 08:08:18;;;;;;;24.85;13.30;;;;;;;7.49;54.68;102785.19;5051786;28;20107;-41
2022/03/20 08:10:44;;;;;;;23.20;13.38;;;;;;;7.56;54.32;102794.47;5052243;28;20098;-42
2022/03/20 08:13:10;;;;;;;26.17;14.38;;;;;;;7.31;54.46;102781.19;5052116;28;20098;-41
2022/03/20 08:15:36;;;;;;;28.00;13.98;;;;;;;6.97;55.37;102775.59;5053191;28;20468;-41
2022/03/20 08:18:06;;;;;;;30.33;14.35;;;;;;;6.79;55.88;102773.31;5057731;28;20024;-41
2022/03/20 08:20:31;;;;;;;31.23;14.10;;;;;;;6.86;55.91;102765.66;5057087;28;20059;-41
2022/03/20 08:22:56;;;;;;;29.95;14.02;;;;;;;6.77;55.77;102772.53;5048912;28;20073;-41
2022/03/20 08:25:22;;;;;;;30.17;15.13;;;;;;;6.62;55.99;102773.63;5052981;28;20040;-42
2022/03/20 08:27:53;;;;;;;28.90;14.73;;;;;;;6.51;55.79;102769.03;5052654;28;20414;-41
2022/03/20 08:30:20;;;;;;;26.27;13.65;;;;;;;6.43;55.67;102782.09;5054653;28;20040;-41
2022/03/20 08:32:48;;;;;;;26.15;14.30;;;;;;;6.21;56.30;102780.03;5050573;28;20518;-40
2022/03/20 08:35:17;;;;;;;30.50;14.55;;;;;;;5.89;57.18;102777.72;5045124;28;20020;-40
2022/03/20 08:37:46;;;;;;;28.98;14.88;;;;;;;5.72;57.63;102780.69;5050326;28;20560;-42
2022/03/20 08:40:17;;;;;;;24.15;14.13;;;;;;;5.47;57.79;102776.97;5048596;28;20020;-41
2022/03/20 08:42:48;;;;;;;28.27;14.15;;;;;;;5.35;58.67;102764.44;5053009;28;20039;-41
2022/03/20 08:45:15;;;;;;;28.75;14.98;;;;;;;5.26;58.77;102783.72;5055096;28;20540;-40
2022/03/20 08:47:41;;;;;;;29.42;13.98;;;;;;;5.24;59.11;102761.63;5049137;28;20052;-40
2022/03/20 08:50:07;;;;;;;32.88;15.57;;;;;;;5.24;59.03;102758.94;5052297;28;20135;-41
2022/03/20 08:52:32;;;;;;;33.00;15.02;;;;;;;5.22;58.94;102774.22;5054219;28;20037;-41
2022/03/20 08:54:58;;;;;;;28.75;14.63;;;;;;;5.28;59.21;102779.13;5055074;28;20494;-41
2022/03/20 08:57:27;;;;;;;31.42;14.90;;;;;;;5.34;58.67;102767.19;5053220;28;20162;-41
2022/03/20 08:59:54;;;;;;;28.27;15.27;;;;;;;5.36;58.59;102766.13;5053567;28;20067;-41
2022/03/20 09:02:20;;;;;;;35.00;15.10;;;;;;;5.40;57.97;102751.63;5053949;28;20028;-41
2022/03/20 09:04:45;;;;;;;29.48;14.77;;;;;;;5.32;58.42;102753.97;5057617;28;20098;-42
2022/03/20 09:07:11;;;;;;;26.63;14.80;;;;;;;5.36;58.93;102744.78;5051183;28;20496;-42
2022/03/20 09:09:36;;;;;;;25.67;14.50;;;;;;;5.48;58.82;102743.97;5051021;28;20033;-42
2022/03/20 09:12:02;;;;;;;28.88;15.88;;;;;;;5.57;58.52;102738.97;5052037;28;20082;-41
2022/03/20 09:14:27;;;;;;;30.70;14.50;;;;;;;5.57;57.60;102741.66;5055477;28;20453;-41
2022/03/20 09:19:37;;;;;;;27.45;15.55;;;;;;;5.38;57.88;102737.53;5053734;28;20039;-42
2022/03/20 09:22:06;;;;;;;34.08;15.73;;;;;;;5.40;57.67;102730.28;5057668;28;20032;-41
2022/03/20 09:24:31;;;;;;;;;;;;;;;5.36;57.69;102730.56;5052441;28;20446;-41
2022/03/20 09:26:57;;;;;;;27.88;13.57;;;;;;;5.27;57.81;102745.41;5051486;28;20008;-41
2022/03/20 09:29:22;;;;;;;34.50;16.33;;;;;;;5.23;58.06;102731.38;5049746;28;20035;-42
2022/03/20 09:31:50;;;;;;;29.48;15.90;;;;;;;5.30;57.97;102729.19;5048427;28;20028;-42
2022/03/20 09:34:15;;;;;;;28.50;14.93;;;;;;;5.31;57.77;102724.69;5050171;28;20048;-41
2022/03/20 09:36:41;;;;;;;36.05;14.48;;;;;;;5.35;58.17;102732.41;5051682;28;20025;-41
2022/03/20 09:39:06;;;;;;;34.40;15.50;;;;;;;5.33;57.79;102728.97;5052648;28;20082;-42
2022/03/20 09:41:32;;;;;;;34.53;15.90;;;;;;;5.36;57.60;102739.44;5054316;28;20028;-43
2022/03/20 09:43:58;;;;;;;27.63;15.60;;;;;;;5.40;58.23;102730.28;5052542;28;20037;-42
2022/03/20 09:46:25;;;;;;;28.58;16.20;;;;;;;5.45;57.52;102737.97;5054307;28;20025;-42
2022/03/20 09:48:52;;;;;;;31.10;15.65;;;;;;;5.47;56.65;102736.91;5050931;28;20078;-41
2022/03/20 09:51:17;;;;;;;33.25;16.65;;;;;;;5.43;57.37;102731.88;5056943;28;20119;-42
2022/03/20 09:53:42;;;;;;;37.38;16.67;;;;;;;5.47;57.46;102731.56;5060588;28;20448;-42
2022/03/20 09:56:11;;;;;;;32.47;16.60;;;;;;;5.52;57.39;102738.44;5053222;28;20017;-41
2022/03/20 09:58:37;;;;;;;36.85;16.88;;;;;;;5.48;57.05;102735.13;5056645;28;20027;-43
2022/03/20 10:01:02;;;;;;;27.35;15.18;;;;;;;5.68;56.21;102744.44;5058072;28;20021;-41
2022/03/20 10:03:28;;;;;;;33.10;16.17;;;;;;;5.79;55.50;102741.91;5061416;28;20040;-43
2022/03/20 10:06:05;;;;;;;36.67;17.60;;;;;;;5.72;55.21;102735.28;5058428;28;20037;-41
2022/03/20 10:08:31;;;;;;;33.88;16.15;;;;;;;5.74;55.88;102733.38;5055883;28;20368;-41
2022/03/20 10:11:18;;;;;;;32.78;16.88;;;;;;;5.74;55.09;102738.72;5050820;28;20589;-41
2022/03/20 10:14:05;;;;;;;40.90;18.10;;;;;;;5.42;54.67;102736.34;5054048;28;20055;-41
2022/03/20 10:16:30;;;;;;;32.72;16.65;;;;;;;5.39;55.00;102739.22;5056240;28;20491;-42
2022/03/20 10:18:56;;;;;;;36.67;17.25;;;;;;;5.40;55.55;102738.28;5060315;28;20040;-42
2022/03/20 10:21:21;;;;;;;35.15;17.00;;;;;;;5.63;55.94;102733.22;5052778;28;20037;-42
2022/03/20 10:23:46;;;;;;;38.15;17.80;;;;;;;5.71;57.08;102741.56;5056247;28;20028;-41
2022/03/20 10:26:14;;;;;;;39.97;20.27;;;;;;;5.33;59.86;102723.63;5056818;28;20032;-42
2022/03/20 10:28:42;;;;;;;42.83;21.15;;;;;;;4.97;62.08;102714.38;5053134;28;20155;-41
2022/03/20 10:31:10;;;;;;;46.00;20.50;;;;;;;4.83;63.45;102711.78;5049832;28;20049;-40
2022/03/20 10:33:40;;;;;;;41.72;20.23;;;;;;;4.75;63.14;102708.75;5054278;28;20044;-42
2022/03/20 10:36:13;;;;;;;44.47;20.60;;;;;;;4.80;65.50;102691.47;5058106;28;20126;-41
2022/03/20 10:38:39;;;;;;;42.65;21.35;;;;;;;4.64;65.41;102692.56;5058484;28;20028;-41
2022/03/20 10:41:26;;;;;;;45.63;23.00;;;;;;;4.83;66.21;102677.94;5052488;28;20032;-40
2022/03/20 10:43:55;;;;;;;39.63;21.05;;;;;;;5.15;66.26;102676.78;5056863;28;20043;-41
2022/03/20 10:46:28;;;;;;;36.83;20.48;;;;;;;5.11;66.06;102665.47;5057147;28;20473;-41
2022/03/20 10:48:55;;;;;;;37.85;19.02;;;;;;;5.42;63.36;102664.25;5054001;28;20058;-41
2022/03/20 10:51:39;;;;;;;38.75;21.17;;;;;;;5.43;63.88;102655.31;5069737;28;20032;-41
2022/03/20 10:54:11;;;;;;;42.70;20.98;;;;;;;6.27;65.20;102648.63;5069525;28;20028;-41
2022/03/20 10:56:51;;;;;;;46.70;20.90;;;;;;;6.74;60.43;102647.00;5070013;28;20024;-42
2022/03/20 10:59:17;;;;;;;42.03;19.75;;;;;;;7.08;59.34;102649.84;5056685;28;20049;-42
2022/03/20 11:01:47;;;;;;;41.95;20.48;;;;;;;6.80;57.73;102643.88;5065949;28;20391;-42
2022/03/20 11:04:13;;;;;;;40.40;21.13;;;;;;;6.54;58.07;102642.25;5071441;28;20281;-42
2022/03/20 11:06:48;;;;;;;33.45;19.83;;;;;;;6.48;59.49;102648.06;5071728;28;20063;-41
2022/03/20 11:09:15;;;;;;;43.35;20.92;;;;;;;6.44;59.04;102647.41;5071899;28;20438;-41
2022/03/20 11:11:51;;;;;;;43.63;20.83;;;;;;;6.36;58.48;102663.16;5072426;28;20449;-40
2022/03/20 11:14:22;;;;;;;37.45;20.25;;;;;;;6.51;58.06;102666.56;5070646;28;20032;-40
2022/03/20 11:16:49;;;;;;;41.58;20.45;;;;;;;6.80;57.11;102665.28;5072209;28;20036;-41
2022/03/20 11:19:19;;;;;;;41.55;21.35;;;;;;;7.21;55.85;102664.03;5071981;28;20032;-40
2022/03/20 11:21:47;;;;;;;42.42;21.13;;;;;;;7.59;55.25;102673.66;5070805;28;20036;-40
2022/03/20 11:24:15;;;;;;;35.30;21.17;;;;;;;7.89;54.67;102680.28;5053607;28;20035;-42
2022/03/20 11:26:43;;;;;;;42.92;20.67;;;;;;;7.91;53.88;102673.84;5072066;28;20058;-41
2022/03/20 11:29:11;;;;;;;37.08;20.92;;;;;;;7.70;55.11;102681.72;5071828;28;20538;-41
2022/03/20 11:31:37;;;;;;;37.15;21.42;;;;;;;7.52;56.15;102687.63;5070333;28;20033;-41
2022/03/20 11:34:03;;;;;;;38.75;21.30;;;;;;;7.01;56.98;102678.91;5070423;28;20059;-42
2022/03/20 11:36:29;;;;;;;39.67;20.67;;;;;;;6.65;56.72;102670.88;5071946;28;20074;-41
2022/03/20 11:39:15;;;;;;;42.90;20.60;;;;;;;6.67;58.27;102664.47;5069877;28;20036;-41
2022/03/20 11:41:42;;;;;;;40.95;19.83;;;;;;;7.21;58.21;102668.50;5071822;28;20435;-41
2022/03/20 11:44:21;;;;;;;38.93;21.60;;;;;;;7.59;56.87;102657.59;5071079;28;20398;-41
2022/03/20 11:47:12;;;;;;;37.08;21.42;;;;;;;8.43;53.20;102666.22;5071126;28;20271;-41
2022/03/20 11:49:39;;;;;;;36.20;20.20;;;;;;;8.68;50.51;102665.09;5054376;28;20051;-41
2022/03/20 11:52:09;;;;;;;34.67;20.60;;;;;;;9.30;49.82;102663.56;5071473;28;20025;-41